Time;durP1;ratioP1;P1;durP2;ratioP2;P2;SDS_P1;SDS_P2;PMS_P1;PMS_P2;Temp;Humidity;BMP_temperature;BMP_pressure;BME280_temperature;BME280_humidity;BME280_pressure;Samples;Min_cycle;Max_cycle;Signal;HPM_P1;HPM_P2
2022/11/01 00:01:49;;;;;;;;;13.67;12.67;;;;;14.83;75.97;100723.22;5050382;28;9266;-67
2022/11/01 00:04:16;;;;;;;;;15.33;15.33;;;;;14.81;76.48;100726.13;5058783;28;9353;-67
2022/11/01 00:06:42;;;;;;;;;11.33;10.00;;;;;14.82;76.25;100725.06;5049481;28;9329;-67
2022/11/01 00:09:09;;;;;;;;;13.00;13.00;;;;;14.81;76.14;100731.56;5050063;28;9264;-68
2022/11/01 00:11:36;;;;;;;;;13.00;12.00;;;;;14.84;76.18;100728.41;5047439;28;9305;-67
2022/11/01 00:14:02;;;;;;;;;15.00;13.00;;;;;14.83;76.33;100729.47;5050368;28;9326;-67
2022/11/01 00:16:29;;;;;;;;;13.00;12.67;;;;;14.88;76.50;100722.53;5048505;28;9908;-67
2022/11/01 00:18:55;;;;;;;;;12.00;11.33;;;;;14.81;76.46;100714.47;5048184;28;9227;-69
2022/11/01 00:21:22;;;;;;;;;13.67;11.33;;;;;14.88;76.49;100717.13;5047974;28;9942;-67
2022/11/01 00:23:48;;;;;;;;;12.33;11.67;;;;;14.84;76.17;100705.91;5050225;28;10023;-67
2022/11/01 00:26:18;;;;;;;;;12.67;11.33;;;;;14.91;76.02;100705.78;5048846;28;9286;-68
2022/11/01 00:28:45;;;;;;;;;17.00;13.33;;;;;14.93;76.19;100696.41;5049335;28;9345;-67
2022/11/01 00:31:13;;;;;;;;;16.67;15.67;;;;;14.93;76.10;100703.72;5049600;28;9277;-67
2022/11/01 00:33:39;;;;;;;;;17.33;15.00;;;;;14.89;76.34;100702.50;5049477;28;9303;-65
2022/11/01 00:36:07;;;;;;;;;17.00;16.00;;;;;14.92;76.27;100702.88;5045256;28;9383;-66
2022/11/01 00:38:34;;;;;;;;;12.00;10.33;;;;;14.94;76.44;100695.34;5063450;28;9286;-68
2022/11/01 00:41:02;;;;;;;;;13.00;11.00;;;;;14.91;76.46;100694.97;5049013;28;9962;-67
2022/11/01 00:43:30;;;;;;;;;17.00;14.00;;;;;14.85;76.71;100680.44;5049430;28;9229;-65
2022/11/01 00:45:57;;;;;;;;;13.67;11.67;;;;;14.87;76.92;100683.78;5046559;28;9340;-66
2022/11/01 00:48:23;;;;;;;;;12.33;12.00;;;;;14.89;76.90;100678.94;5048243;28;9389;-66
2022/11/01 00:50:50;;;;;;;;;11.67;9.00;;;;;14.94;77.07;100667.41;5049514;28;10016;-66
2022/11/01 00:53:17;;;;;;;;;11.33;11.33;;;;;14.94;76.82;100670.13;5046985;28;9236;-66
2022/11/01 00:55:43;;;;;;;;;12.67;11.33;;;;;14.92;77.04;100661.41;5049063;28;9287;-66
2022/11/01 00:58:09;;;;;;;;;14.33;13.67;;;;;14.94;77.21;100653.84;5048880;28;9301;-68
2022/11/01 01:00:36;;;;;;;;;13.00;12.00;;;;;14.96;77.12;100644.44;5046271;28;9314;-67
2022/11/01 01:03:04;;;;;;;;;12.33;9.00;;;;;14.98;77.01;100655.88;5048767;28;9053;-66
2022/11/01 01:05:32;;;;;;;;;9.33;8.00;;;;;15.02;76.93;100651.66;5049348;28;9976;-65
2022/11/01 01:07:58;;;;;;;;;11.00;11.00;;;;;15.04;77.05;100652.28;5049192;28;10140;-66
2022/11/01 01:10:25;;;;;;;;;14.33;11.33;;;;;14.99;76.88;100638.59;5047357;28;9217;-66
2022/11/01 01:12:51;;;;;;;;;13.67;12.33;;;;;15.01;77.45;100649.19;5049395;28;9316;-66
2022/11/01 01:15:18;;;;;;;;;11.67;11.67;;;;;15.01;77.24;100651.91;5050939;28;9265;-66
2022/11/01 01:17:45;;;;;;;;;7.67;7.67;;;;;15.09;77.28;100643.44;5052821;28;9282;-66
2022/11/01 01:20:13;;;;;;;;;9.33;8.33;;;;;15.03;77.44;100658.75;5052558;28;9161;-67
2022/11/01 01:22:40;;;;;;;;;11.67;11.67;;;;;15.06;77.39;100638.47;5045182;28;9178;-66
2022/11/01 01:25:07;;;;;;;;;11.33;8.67;;;;;15.12;77.05;100640.28;5050472;28;9234;-68
2022/11/01 01:27:33;;;;;;;;;13.00;12.67;;;;;15.08;77.09;100642.63;5051838;28;9956;-65
2022/11/01 01:30:00;;;;;;;;;11.00;10.33;;;;;15.15;77.16;100634.41;5051162;28;9296;-65
2022/11/01 01:32:26;;;;;;;;;10.00;10.00;;;;;15.16;76.79;100646.91;5052983;28;9404;-65
2022/11/01 01:34:53;;;;;;;;;12.33;9.00;;;;;15.24;76.75;100645.75;5053373;28;9353;-67
2022/11/01 01:37:19;;;;;;;;;9.00;9.00;;;;;15.24;76.70;100638.44;5052371;28;9053;-66
2022/11/01 01:39:45;;;;;;;;;13.00;11.00;;;;;15.26;76.58;100640.91;5052792;28;9174;-66
2022/11/01 01:42:35;;;;;;;;;12.33;10.33;;;;;15.25;76.74;100625.72;5052482;28;9166;-65
2022/11/01 01:45:27;;;;;;;;;13.00;13.00;;;;;15.20;77.00;100633.72;5047945;28;9069;-66
2022/11/01 01:47:58;;;;;;;;;14.00;14.00;;;;;15.21;76.93;100627.22;5047834;28;9247;-65
2022/11/01 01:50:31;;;;;;;;;11.33;10.33;;;;;15.23;76.78;100631.38;5051340;28;9136;-66
2022/11/01 01:53:10;;;;;;;;;16.67;15.67;;;;;15.24;76.82;100624.91;5051721;28;9937;-66
2022/11/01 01:55:59;;;;;;;;;12.00;11.33;;;;;15.28;76.85;100622.56;5051771;28;9254;-66
2022/11/01 01:58:36;;;;;;;;;7.00;6.00;;;;;15.31;76.77;100619.34;5050718;28;9332;-66
2022/11/01 02:01:03;;;;;;;;;11.33;9.33;;;;;15.25;77.10;100615.69;5052646;28;9140;-65
2022/11/01 02:03:32;;;;;;;;;10.00;9.33;;;;;15.28;77.22;100609.00;5052758;28;9213;-66
2022/11/01 02:06:22;;;;;;;;;12.33;10.33;;;;;15.29;77.06;100603.31;5052457;28;9263;-65
2022/11/01 02:08:56;;;;;;;;;12.00;11.00;;;;;15.24;77.25;100610.50;5048479;28;9169;-66
2022/11/01 02:11:23;;;;;;;;;13.33;11.33;;;;;15.30;77.34;100609.56;5051003;28;9268;-66
2022/11/01 02:13:50;;;;;;;;;11.00;11.00;;;;;15.32;77.43;100608.28;5051789;28;9343;-65
2022/11/01 02:16:25;;;;;;;;;8.33;8.33;;;;;15.38;77.29;100603.81;5051778;28;9247;-66
2022/11/01 02:19:18;;;;;;;;;10.00;8.33;;;;;15.37;77.12;100594.03;5048373;28;9164;-65
2022/11/01 02:21:53;;;;;;;;;11.00;11.00;;;;;15.33;77.79;100596.38;5051205;28;9067;-65
2022/11/01 02:24:45;;;;;;;;;14.00;13.00;;;;;15.34;77.61;100598.03;5052514;28;9193;-66
2022/11/01 02:27:23;;;;;;;;;14.00;13.00;;;;;15.38;77.91;100605.72;5046359;28;9157;-66
2022/11/01 02:30:02;;;;;;;;;14.67;10.00;;;;;15.40;77.96;100600.91;5048861;28;9917;-65
2022/11/01 02:33:01;;;;;;;;;9.00;9.00;;;;;15.40;77.70;100604.44;5052237;28;9009;-65
2022/11/01 02:35:54;;;;;;;;;10.67;9.67;;;;;15.44;78.06;100602.09;5050448;28;9045;-65
2022/11/01 02:38:28;;;;;;;;;5.33;4.67;;;;;15.44;77.72;100613.75;5048926;28;9159;-66
2022/11/01 02:41:00;;;;;;;;;7.67;7.67;;;;;15.47;78.06;100604.31;5050147;28;9160;-66
2022/11/01 02:43:35;;;;;;;;;10.33;9.33;;;;;15.49;78.05;100596.78;5049245;28;9090;-65
2022/11/01 02:46:59;;;;;;;;;9.00;9.00;;;;;15.51;77.84;100606.31;5051912;28;9074;-65
2022/11/01 02:48:52;;;;;;;;;12.33;11.00;;;;;15.43;78.40;100600.41;5051357;28;9786;-65
2022/11/01 02:51:21;;;;;;;;;9.33;9.33;;;;;15.43;78.91;100608.53;5050503;28;8985;-65
2022/11/01 02:53:48;;;;;;;;;10.67;10.00;;;;;15.52;78.21;100602.56;5051670;28;8988;-67
2022/11/01 02:56:16;;;;;;;;;8.00;8.00;;;;;15.55;78.22;100614.81;5051651;28;9816;-66
2022/11/01 02:58:45;;;;;;;;;9.50;9.50;;;;;15.54;78.53;100624.84;5049856;28;9847;-66
2022/11/01 03:01:20;;;;;;;;;9.00;9.00;;;;;15.62;78.11;100629.13;5050931;28;8837;-66
2022/11/01 03:03:49;;;;;;;;;6.00;5.00;;;;;15.69;78.13;100634.50;5048152;28;9617;-65
2022/11/01 03:06:25;;;;;;;;;7.67;7.67;;;;;15.67;77.84;100634.69;5049385;28;8849;-66
2022/11/01 03:08:59;;;;;;;;;12.00;9.67;;;;;15.65;77.96;100660.44;5051322;28;9079;-67
2022/11/01 03:11:37;;;;;;;;;8.67;8.00;;;;;15.53;78.13;100658.47;5051605;28;9157;-66
2022/11/01 03:14:17;;;;;;;;;6.33;6.00;;;;;15.46;77.99;100663.16;5050190;28;9059;-66
2022/11/01 03:17:05;;;;;;;;;5.75;5.25;;;;;15.44;77.71;100665.28;5046248;28;9008;-67
2022/11/01 03:19:49;;;;;;;;;5.50;3.75;;;;;15.52;77.17;100659.53;5044729;28;8829;-66
2022/11/01 03:22:43;;;;;;;;;4.00;4.00;;;;;15.45;77.08;100666.94;5051124;28;8817;-66
2022/11/01 03:28:19;;;;;;;;;2.00;2.00;;;;;15.20;75.89;100675.22;5048595;28;9020;-67
2022/11/01 03:30:54;;;;;;;;;1.00;1.00;;;;;15.07;74.53;100678.09;5049391;28;9033;-66
2022/11/01 03:33:24;;;;;;;;;2.00;2.00;;;;;15.17;74.08;100677.56;5048320;28;8900;-66
2022/11/01 03:35:55;;;;;;;;;1.00;1.00;;;;;15.14;73.85;100683.44;5050024;28;8833;-65
2022/11/01 03:38:28;;;;;;;;;3.00;1.00;;;;;15.16;73.03;100676.72;5050037;28;8849;-65
2022/11/01 03:41:02;;;;;;;;;0.25;0.25;;;;;15.13;72.75;100689.91;5050253;28;8945;-66
2022/11/01 03:43:30;;;;;;;;;1.25;1.25;;;;;15.14;72.06;100700.53;5050277;28;9572;-66
2022/11/01 03:45:57;;;;;;;;;0.75;0.50;;;;;15.07;72.31;100700.63;5050698;28;8849;-66
2022/11/01 03:48:23;;;;;;;;;1.00;1.00;;;;;15.13;72.01;100700.75;5047771;28;8955;-65
2022/11/01 03:50:52;;;;;;;;;0.25;0.25;;;;;15.07;71.95;100702.50;5048576;28;8933;-65
2022/11/01 03:53:18;;;;;;;;;1.00;1.00;;;;;14.94;71.53;100710.78;5044583;28;8829;-65
2022/11/01 03:55:45;;;;;;;;;1.00;1.00;;;;;14.89;71.58;100722.28;5050043;28;8876;-65
2022/11/01 03:58:11;;;;;;;;;0.33;0.33;;;;;14.92;71.22;100734.59;5050391;28;8817;-65
2022/11/01 04:00:41;;;;;;;;;1.00;1.00;;;;;14.86;71.15;100724.63;5049979;28;8922;-66
2022/11/01 04:03:09;;;;;;;;;0.25;0.25;;;;;14.81;71.52;100731.56;5048115;28;9649;-66
2022/11/01 04:05:39;;;;;;;;;1.00;1.00;;;;;14.89;71.43;100732.31;5049771;28;8822;-65
2022/11/01 04:08:07;;;;;;;;;2.00;0.00;;;;;14.98;70.90;100739.09;5049337;28;8818;-66
2022/11/01 04:10:33;;;;;;;;;1.00;1.00;;;;;14.97;71.12;100734.72;5046700;28;9674;-66
2022/11/01 04:13:00;;;;;;;;;1.00;1.00;;;;;14.94;71.43;100738.69;5049373;28;8955;-66
2022/11/01 04:21:14;;;;;;;;;1.67;0.67;;;;;14.83;71.49;100755.72;5044441;28;8999;-66
2022/11/01 04:23:42;;;;;;;;;1.00;0.00;;;;;14.88;71.74;100761.31;5050101;28;8894;-65
2022/11/01 04:26:14;;;;;;;;;1.00;1.00;;;;;14.88;71.59;100764.00;5047129;28;9052;-66
2022/11/01 04:28:40;;;;;;;;;1.00;1.00;;;;;14.83;71.02;100774.69;5048618;28;8849;-65
2022/11/01 04:31:07;;;;;;;;;0.00;0.00;;;;;14.73;70.66;100771.66;5048158;28;8844;-66
2022/11/01 04:33:34;;;;;;;;;1.00;1.00;;;;;14.63;70.37;100772.19;5049654;28;8940;-66
2022/11/01 04:36:05;;;;;;;;;0.00;0.00;;;;;14.55;69.42;100784.13;5049565;28;8932;-66
2022/11/01 04:38:31;;;;;;;;;0.33;0.00;;;;;14.56;69.52;100790.38;5047102;28;8968;-66
2022/11/01 04:40:57;;;;;;;;;0.67;0.00;;;;;14.44;68.80;100794.81;5049230;28;8934;-68
2022/11/01 04:43:24;;;;;;;;;1.00;0.00;;;;;14.38;68.69;100795.69;5049462;28;8913;-67
2022/11/01 04:45:54;;;;;;;;;0.67;0.67;;;;;14.40;68.50;100807.97;5049727;28;8944;-66
2022/11/01 04:48:21;;;;;;;;;0.00;0.00;;;;;14.41;68.12;100808.78;5044926;28;9056;-67
2022/11/01 04:50:48;;;;;;;;;0.33;0.33;;;;;14.35;67.84;100808.63;5044013;28;8948;-66
2022/11/01 04:53:15;;;;;;;;;0.00;0.00;;;;;14.28;67.59;100798.91;5048779;28;9002;-66
2022/11/01 04:55:41;;;;;;;;;0.00;0.00;;;;;14.25;67.46;100789.31;5049177;28;9625;-66
2022/11/01 04:58:09;;;;;;;;;0.00;0.00;;;;;14.35;67.54;100803.22;5049643;28;8990;-65
2022/11/01 05:00:37;;;;;;;;;0.67;0.67;;;;;14.45;67.83;100785.63;5048194;28;9176;-66
2022/11/01 05:03:06;;;;;;;;;0.00;0.00;;;;;14.52;67.92;100800.00;5045724;28;8925;-65
2022/11/01 05:05:34;;;;;;;;;2.33;0.33;;;;;14.48;67.65;100804.16;5047916;28;8922;-66
2022/11/01 05:08:01;;;;;;;;;0.00;0.00;;;;;14.39;67.92;100808.19;5049547;28;9097;-64
2022/11/01 05:10:34;;;;;;;;;0.00;0.00;;;;;14.35;67.74;100805.91;5049508;28;8941;-67
2022/11/01 05:13:01;;;;;;;;;1.00;0.00;;;;;14.25;67.12;100796.63;5041646;28;9037;-65
2022/11/01 05:15:29;;;;;;;;;1.67;1.67;;;;;14.07;65.59;100808.22;5049531;28;9007;-65
2022/11/01 05:17:55;;;;;;;;;0.33;0.00;;;;;14.05;65.61;100818.41;5044169;28;9148;-65
2022/11/01 05:20:22;;;;;;;;;1.33;0.00;;;;;14.10;65.49;100813.19;5049290;28;9105;-64
2022/11/01 05:22:48;;;;;;;;;5.00;1.00;;;;;14.10;65.13;100808.59;5048084;28;9049;-66
2022/11/01 05:25:16;;;;;;;;;2.33;0.67;;;;;14.14;65.24;100821.69;5047411;28;9064;-64
2022/11/01 05:27:43;;;;;;;;;0.00;0.00;;;;;14.11;65.04;100814.84;5047581;28;9176;-66
2022/11/01 05:30:10;;;;;;;;;1.00;0.00;;;;;14.02;64.76;100802.63;5049452;28;8986;-65
2022/11/01 05:32:36;;;;;;;;;1.00;0.00;;;;;14.05;64.93;100802.16;5048213;28;8980;-67
2022/11/01 05:35:05;;;;;;;;;2.00;1.00;;;;;13.91;64.91;100823.06;5049402;28;9102;-64
2022/11/01 05:37:31;;;;;;;;;2.00;0.00;;;;;13.91;64.96;100812.25;5049065;28;9190;-65
2022/11/01 05:39:57;;;;;;;;;1.00;0.00;;;;;14.00;65.46;100812.81;5048626;28;9073;-65
2022/11/01 05:42:24;;;;;;;;;0.00;0.00;;;;;13.95;64.64;100809.94;5048243;28;9121;-65
2022/11/01 05:44:50;;;;;;;;;0.67;0.00;;;;;13.87;64.76;100811.03;5044901;28;9055;-65
2022/11/01 05:47:17;;;;;;;;;0.00;0.00;;;;;13.81;64.62;100815.44;5047577;28;9177;-64
2022/11/01 05:49:43;;;;;;;;;2.00;1.00;;;;;13.81;64.48;100810.03;5049618;28;9117;-64
2022/11/01 05:52:09;;;;;;;;;1.00;1.00;;;;;13.79;64.18;100819.41;5048081;28;9096;-67
2022/11/01 05:54:36;;;;;;;;;1.33;0.00;;;;;13.80;64.30;100827.28;5048984;28;9037;-65
2022/11/01 05:57:04;;;;;;;;;0.00;0.00;;;;;13.76;64.18;100819.81;5048607;28;9872;-64
2022/11/01 05:59:30;;;;;;;;;0.67;0.00;;;;;13.82;64.77;100814.38;5049104;28;9619;-67
2022/11/01 06:01:57;;;;;;;;;0.00;0.00;;;;;13.72;63.76;100822.13;5047412;28;9228;-64
2022/11/01 06:04:23;;;;;;;;;0.33;0.33;;;;;13.72;64.03;100832.94;5050132;28;9250;-64
2022/11/01 06:06:50;;;;;;;;;1.00;0.00;;;;;13.68;63.79;100830.88;5052900;28;9083;-66
2022/11/01 06:09:16;;;;;;;;;2.00;0.00;;;;;13.62;63.81;100846.13;5051119;28;9141;-66
2022/11/01 06:11:42;;;;;;;;;1.00;0.33;;;;;13.66;64.08;100849.22;5052337;28;9225;-66
2022/11/01 06:14:09;;;;;;;;;2.33;0.00;;;;;13.63;63.78;100839.66;5052653;28;9148;-65
2022/11/01 06:16:36;;;;;;;;;1.00;0.00;;;;;13.60;63.35;100856.31;5052795;28;9156;-65
2022/11/01 06:19:02;;;;;;;;;0.00;0.00;;;;;13.57;62.93;100859.41;5052492;28;10189;-66
2022/11/01 06:21:28;;;;;;;;;0.67;0.00;;;;;13.59;62.85;100857.34;5050666;28;9158;-66
2022/11/01 06:23:55;;;;;;;;;0.00;0.00;;;;;13.67;62.44;100850.88;5052654;28;9128;-66
2022/11/01 06:26:22;;;;;;;;;1.33;1.33;;;;;13.61;62.30;100857.94;5050443;28;9173;-65
2022/11/01 06:28:48;;;;;;;;;1.33;1.33;;;;;13.66;62.28;100850.06;5052511;28;9160;-65
2022/11/01 06:31:15;;;;;;;;;1.00;0.00;;;;;13.63;62.56;100861.28;5049409;28;9334;-65
2022/11/01 06:33:41;;;;;;;;;1.00;1.00;;;;;13.63;62.37;100852.34;5052132;28;9053;-65
2022/11/01 06:36:08;;;;;;;;;1.00;0.00;;;;;13.59;62.33;100860.06;5051515;28;9256;-65
2022/11/01 06:38:35;;;;;;;;;0.67;0.67;;;;;13.67;62.36;100861.69;5048612;28;9140;-65
2022/11/01 06:41:01;;;;;;;;;1.67;1.67;;;;;13.74;62.36;100863.34;5046996;28;9170;-65
2022/11/01 06:43:28;;;;;;;;;1.33;0.67;;;;;13.69;62.02;100863.13;5047207;28;9078;-64
2022/11/01 06:45:57;;;;;;;;;2.67;0.00;;;;;13.74;62.26;100874.16;5050587;28;9069;-65
2022/11/01 06:48:23;;;;;;;;;1.67;1.00;;;;;13.75;61.89;100870.41;5044030;28;9060;-65
2022/11/01 06:50:52;;;;;;;;;1.67;0.67;;;;;13.69;61.80;100882.06;5046915;28;9113;-65
2022/11/01 06:53:18;;;;;;;;;1.33;1.33;;;;;13.65;61.87;100875.41;5051722;28;9181;-65
2022/11/01 06:55:45;;;;;;;;;3.00;1.00;;;;;13.61;61.67;100890.41;5050839;28;9343;-65
2022/11/01 06:58:11;;;;;;;;;2.00;1.00;;;;;13.63;61.78;100901.03;5051680;28;9012;-66
2022/11/01 07:00:38;;;;;;;;;4.33;1.67;;;;;13.67;61.99;100900.41;5043056;28;8984;-65
2022/11/01 07:03:06;;;;;;;;;1.00;1.00;;;;;13.67;61.92;100899.56;5049421;28;9182;-67
2022/11/01 07:05:35;;;;;;;;;1.00;1.00;;;;;13.65;61.85;100909.75;5054172;28;9212;-65
2022/11/01 07:08:05;;;;;;;;;1.00;0.67;;;;;13.75;64.04;100910.16;5050168;28;9182;-64
2022/11/01 07:10:32;;;;;;;;;5.67;2.67;;;;;13.84;63.18;100922.38;5050699;28;9245;-65
2022/11/01 07:13:00;;;;;;;;;3.00;1.00;;;;;13.80;62.06;100921.97;5050544;28;9150;-66
2022/11/01 07:15:28;;;;;;;;;1.00;0.00;;;;;13.73;62.06;100923.03;5051309;28;9184;-65
2022/11/01 07:17:59;;;;;;;;;1.00;1.00;;;;;13.71;61.57;100925.16;5047882;28;9182;-65
2022/11/01 07:20:28;;;;;;;;;1.00;0.00;;;;;13.75;62.35;100948.84;5050671;28;8956;-64
2022/11/01 07:22:57;;;;;;;;;6.00;1.00;;;;;13.67;62.15;100942.84;5051245;28;9074;-66
2022/11/01 07:25:24;;;;;;;;;1.67;1.33;;;;;13.60;62.19;100956.38;5051022;28;9227;-65
2022/11/01 07:27:50;;;;;;;;;1.00;0.67;;;;;13.57;62.54;100963.06;5048518;28;9226;-67
2022/11/01 07:30:17;;;;;;;;;0.00;0.00;;;;;13.59;62.29;100962.84;5049616;28;9250;-65
2022/11/01 07:32:43;;;;;;;;;2.00;1.00;;;;;13.62;63.06;100962.41;5049910;28;9182;-66
2022/11/01 07:35:09;;;;;;;;;1.33;0.33;;;;;13.62;62.72;100965.13;5049724;28;9174;-64
2022/11/01 07:37:36;;;;;;;;;13.25;7.75;;;;;13.66;62.90;100963.66;5049751;28;9198;-65
2022/11/01 07:40:03;;;;;;;;;2.00;2.00;;;;;13.60;63.15;100984.25;5050572;28;9389;-65
2022/11/01 07:42:29;;;;;;;;;1.33;1.00;;;;;13.60;62.98;100978.00;5050721;28;9155;-65
2022/11/01 07:44:56;;;;;;;;;0.00;0.00;;;;;13.61;63.19;100987.78;5048737;28;9085;-66
2022/11/01 07:47:22;;;;;;;;;1.00;1.00;;;;;13.56;63.02;100998.41;5049463;28;9740;-66
2022/11/01 07:49:49;;;;;;;;;1.00;1.00;;;;;13.60;63.16;100988.84;5050238;28;9066;-66
2022/11/01 07:52:16;;;;;;;;;1.33;1.33;;;;;13.57;63.37;100998.22;5049896;28;9126;-66
2022/11/01 07:54:42;;;;;;;;;2.00;1.00;;;;;13.60;63.45;100996.94;5049017;28;9091;-66
2022/11/01 07:57:08;;;;;;;;;2.00;1.00;;;;;13.63;63.72;101030.88;5048916;28;9232;-64
2022/11/01 07:59:36;;;;;;;;;4.00;1.67;;;;;13.50;63.37;101020.91;5039306;28;9181;-66
2022/11/01 08:02:02;;;;;;;;;1.00;0.67;;;;;13.55;63.67;101021.94;5051255;28;9247;-66
2022/11/01 08:04:33;;;;;;;;;3.67;2.00;;;;;13.57;63.76;101013.59;5045821;28;9780;-66
2022/11/01 08:07:00;;;;;;;;;3.67;1.00;;;;;13.60;63.77;101024.00;5050434;28;9391;-65
2022/11/01 08:09:26;;;;;;;;;1.33;1.33;;;;;13.53;63.48;101026.72;5049829;28;9258;-63
2022/11/01 08:11:53;;;;;;;;;3.67;1.00;;;;;13.52;64.04;101032.31;5049459;28;9176;-64
2022/11/01 08:14:19;;;;;;;;;1.67;0.00;;;;;13.62;64.13;101048.97;5049661;28;9136;-65
2022/11/01 08:16:54;;;;;;;;;6.33;3.00;;;;;13.61;64.19;101036.47;5048336;28;9013;-68
2022/11/01 08:19:21;;;;;;;;;2.33;1.33;;;;;13.65;64.48;101040.41;5048463;28;9339;-68
2022/11/01 08:21:49;;;;;;;;;2.67;2.00;;;;;13.67;64.39;101051.06;5048087;28;9247;-66
2022/11/01 08:24:16;;;;;;;;;2.00;1.00;;;;;13.77;64.41;101046.03;5051221;28;9173;-66
2022/11/01 08:26:43;;;;;;;;;5.00;1.00;;;;;13.70;64.42;101075.81;5049370;28;8973;-64
2022/11/01 08:29:09;;;;;;;;;1.00;1.00;;;;;13.64;64.60;101073.94;5048427;28;9183;-65
2022/11/01 08:31:40;;;;;;;;;3.00;2.00;;;;;13.63;64.71;101064.16;5046134;28;9066;-66
2022/11/01 08:34:06;;;;;;;;;2.33;1.00;;;;;13.62;64.48;101080.63;5063006;28;9262;-65
2022/11/01 08:36:33;;;;;;;;;3.00;1.00;;;;;13.71;64.80;101069.34;5041851;28;9003;-66
2022/11/01 08:39:00;;;;;;;;;7.00;1.00;;;;;13.78;64.36;101082.88;5048440;28;9087;-65
2022/11/01 08:41:29;;;;;;;;;2.33;1.00;;;;;13.86;64.38;101088.09;5046268;28;9131;-66
2022/11/01 08:43:58;;;;;;;;;1.00;1.00;;;;;13.89;64.26;101116.59;5047648;28;9143;-66
2022/11/01 08:46:25;;;;;;;;;5.00;2.00;;;;;13.79;64.08;101106.19;5047720;28;9163;-66
2022/11/01 08:48:55;;;;;;;;;3.00;3.00;;;;;13.71;64.36;101109.94;5047472;28;9077;-67
2022/11/01 08:51:24;;;;;;;;;3.33;0.00;;;;;13.77;64.29;101117.25;5047506;28;9250;-66
2022/11/01 08:53:55;;;;;;;;;1.00;1.00;;;;;13.78;64.47;101107.25;5048923;28;9214;-66
2022/11/01 08:56:23;;;;;;;;;0.67;0.00;;;;;13.82;64.69;101108.50;5045751;28;9334;-66
2022/11/01 08:58:51;;;;;;;;;2.00;0.50;;;;;13.84;64.39;101136.97;5044941;28;9949;-65
2022/11/01 09:01:18;;;;;;;;;2.67;1.67;;;;;13.74;64.45;101133.06;5046607;28;9255;-66
2022/11/01 09:03:44;;;;;;;;;3.00;1.00;;;;;13.70;64.57;101148.03;5046970;28;9186;-65
2022/11/01 09:06:11;;;;;;;;;1.00;0.33;;;;;13.80;64.58;101132.19;5046990;28;9174;-66
2022/11/01 09:08:37;;;;;;;;;4.00;2.00;;;;;13.73;64.43;101143.03;5043675;28;9151;-66
2022/11/01 09:11:05;;;;;;;;;6.00;2.00;;;;;13.68;64.33;101136.56;5045816;28;9208;-66
2022/11/01 09:13:32;;;;;;;;;2.00;1.67;;;;;13.81;64.34;101145.53;5048737;28;9188;-66
2022/11/01 09:16:03;;;;;;;;;1.00;1.00;;;;;13.85;64.04;101160.31;5047417;28;9881;-66
2022/11/01 09:18:29;;;;;;;;;2.00;1.00;;;;;13.80;64.23;101149.25;5047564;28;9081;-66
2022/11/01 09:20:56;;;;;;;;;2.00;2.00;;;;;13.82;64.03;101157.19;5048548;28;9097;-66
2022/11/01 09:23:22;;;;;;;;;2.00;1.00;;;;;13.88;64.20;101156.34;5049200;28;9091;-66
2022/11/01 09:25:49;;;;;;;;;1.33;1.00;;;;;13.88;64.04;101166.34;5048684;28;8975;-66
2022/11/01 09:28:15;;;;;;;;;1.00;1.00;;;;;13.91;64.41;101174.06;5047238;28;9147;-66
2022/11/01 09:30:41;;;;;;;;;1.00;1.00;;;;;13.91;64.34;101165.94;5040383;28;9086;-65
2022/11/01 09:33:22;;;;;;;;;1.67;1.00;;;;;13.93;64.16;101177.38;5048225;28;9070;-66
2022/11/01 09:35:49;;;;;;;;;1.33;1.33;;;;;13.94;64.41;101189.88;5046924;28;9224;-66
2022/11/01 09:38:22;;;;;;;;;1.00;1.00;;;;;14.03;64.57;101177.81;5053583;28;9055;-65
2022/11/01 09:40:59;;;;;;;;;1.33;1.00;;;;;14.09;64.77;101183.19;5050000;28;9231;-66
2022/11/01 09:43:30;;;;;;;;;1.00;1.00;;;;;14.05;64.68;101190.06;5051717;28;9177;-66
2022/11/01 09:45:59;;;;;;;;;1.00;0.00;;;;;14.03;65.00;101194.88;5051427;28;9001;-64
2022/11/01 09:48:28;;;;;;;;;2.67;2.67;;;;;14.00;65.00;101205.28;5050156;28;8996;-65
2022/11/01 09:50:55;;;;;;;;;2.67;2.33;;;;;14.04;65.32;101204.66;5053345;28;9344;-66
2022/11/01 09:53:26;;;;;;;;;3.67;3.67;;;;;14.00;65.11;101210.69;5051742;28;9253;-66
2022/11/01 09:56:21;;;;;;;;;1.33;1.00;;;;;13.94;65.26;101209.66;5050894;28;8975;-65
2022/11/01 09:59:01;;;;;;;;;1.00;1.00;;;;;13.93;65.80;101220.66;5052020;28;8997;-64
2022/11/01 10:01:55;;;;;;;;;0.67;0.67;;;;;13.96;65.41;101221.09;5051104;28;8981;-65
2022/11/01 10:04:44;;;;;;;;;0.67;0.33;;;;;13.94;65.72;101219.66;5051316;28;9173;-67
2022/11/01 10:07:22;;;;;;;;;3.33;1.00;;;;;14.08;65.81;101226.72;5056322;28;9737;-65
2022/11/01 10:10:22;;;;;;;;;1.00;1.00;;;;;14.08;65.26;101221.31;5052181;28;9154;-65
2022/11/01 10:13:11;;;;;;;;;2.00;1.00;;;;;14.04;65.43;101215.47;5051460;28;9071;-65
2022/11/01 10:15:53;;;;;;;;;2.00;1.00;;;;;14.17;65.44;101228.19;5044256;28;9090;-65
2022/11/01 10:18:40;;;;;;;;;1.00;1.00;;;;;14.32;65.17;101233.38;5056172;28;9167;-65
2022/11/01 10:21:20;;;;;;;;;2.00;1.00;;;;;14.37;64.97;101239.00;5048467;28;9731;-66
2022/11/01 10:23:52;;;;;;;;;1.00;1.00;;;;;14.39;64.33;101242.34;5051262;28;8906;-65
2022/11/01 10:26:29;;;;;;;;;1.00;1.00;;;;;14.54;64.59;101242.13;5052491;28;8982;-65
2022/11/01 10:29:15;;;;;;;;;2.00;0.25;;;;;14.53;64.45;101230.47;5052316;28;8993;-66
2022/11/01 10:31:46;;;;;;;;;4.00;2.00;;;;;14.56;64.80;101246.31;5047269;28;8810;-66
2022/11/01 10:34:37;;;;;;;;;2.00;2.00;;;;;14.64;64.71;101253.38;5052008;28;8945;-64
2022/11/01 10:37:38;;;;;;;;;1.75;0.00;;;;;14.55;64.72;101257.38;5047176;28;8980;-66
2022/11/01 10:40:28;;;;;;;;;2.00;1.00;;;;;14.55;64.66;101265.50;5055674;28;8870;-66
2022/11/01 10:42:54;;;;;;;;;2.75;2.00;;;;;14.64;64.98;101261.50;5050288;28;8925;-64
2022/11/01 10:45:22;;;;;;;;;1.75;1.25;;;;;14.68;65.03;101262.75;5052697;28;8851;-65
2022/11/01 10:47:55;;;;;;;;;2.25;1.25;;;;;14.69;64.71;101267.13;5049232;28;8842;-66
2022/11/01 10:50:27;;;;;;;;;2.50;1.75;;;;;14.71;64.79;101270.47;5048815;28;8869;-65
2022/11/01 10:53:05;;;;;;;;;0.00;0.00;;;;;14.85;64.48;101252.28;5050369;28;9592;-66
2022/11/01 10:55:41;;;;;;;;;0.75;0.75;;;;;14.97;64.73;101261.44;5048602;28;8837;-66
2022/11/01 10:58:27;;;;;;;;;3.00;2.00;;;;;14.99;64.07;101258.50;5051227;28;8829;-66
2022/11/01 11:00:53;;;;;;;;;1.00;1.00;;;;;14.82;63.68;101269.81;5043824;28;8829;-66
2022/11/01 11:03:24;;;;;;;;;1.67;1.67;;;;;14.76;63.95;101272.53;5050906;28;8836;-65
2022/11/01 11:05:53;;;;;;;;;2.00;0.67;;;;;14.65;64.34;101275.91;5047920;28;9006;-65
2022/11/01 11:08:23;;;;;;;;;1.00;1.00;;;;;14.69;64.11;101267.13;5049672;28;8943;-65
2022/11/01 11:10:50;;;;;;;;;2.75;1.50;;;;;14.76;64.02;101272.53;5048170;28;9683;-64
2022/11/01 11:13:21;;;;;;;;;3.25;2.00;;;;;14.88;64.07;101259.19;5050296;28;8881;-66
2022/11/01 11:15:59;;;;;;;;;2.50;1.25;;;;;14.87;63.87;101263.78;5050259;28;8822;-65
2022/11/01 11:18:36;;;;;;;;;2.25;1.00;;;;;14.86;63.54;101266.69;5050285;28;8830;-65
2022/11/01 11:21:10;;;;;;;;;1.00;1.00;;;;;14.84;63.47;101253.34;5043931;28;8844;-64
2022/11/01 11:23:45;;;;;;;;;1.00;1.00;;;;;14.91;63.58;101256.03;5049708;28;9569;-67
2022/11/01 11:26:15;;;;;;;;;1.00;0.50;;;;;14.88;63.04;101248.34;5046814;28;8965;-65
2022/11/01 11:28:46;;;;;;;;;2.00;1.00;;;;;15.05;63.25;101242.22;5051880;28;8971;-67
2022/11/01 11:31:21;;;;;;;;;1.75;1.00;;;;;15.15;63.31;101251.78;5052052;28;9734;-67
2022/11/01 11:34:15;;;;;;;;;1.00;1.00;;;;;15.20;63.09;101255.53;5048440;28;8845;-65
2022/11/01 11:36:46;;;;;;;;;1.00;0.75;;;;;15.16;63.34;101248.88;5050324;28;8885;-66
2022/11/01 11:39:25;;;;;;;;;1.00;1.00;;;;;15.22;62.90;101261.56;5050956;28;8830;-65
2022/11/01 11:41:52;;;;;;;;;4.50;1.00;;;;;15.37;62.78;101266.72;5050331;28;9017;-66
2022/11/01 11:44:37;;;;;;;;;1.00;1.00;;;;;15.32;62.19;101269.25;5051939;28;8864;-65
2022/11/01 11:47:03;;;;;;;;;1.33;1.33;;;;;15.33;61.52;101262.78;5048974;28;8966;-65
2022/11/01 11:49:31;;;;;;;;;0.00;0.00;;;;;15.42;61.53;101271.50;5050403;28;8922;-67
2022/11/01 11:51:57;;;;;;;;;0.75;0.75;;;;;15.51;61.25;101272.91;5049495;28;8838;-65
2022/11/01 11:54:28;;;;;;;;;2.00;0.00;;;;;15.41;61.03;101264.41;5050708;28;9565;-65